Time;durP1;ratioP1;P1;durP2;ratioP2;P2;SDS_P1;SDS_P2;PMS_P1;PMS_P2;Temp;Humidity;BMP_temperature;BMP_pressure;BME280_temperature;BME280_humidity;BME280_pressure;Samples;Min_cycle;Max_cycle;Signal;HPM_P1;HPM_P2
2021/01/23 00:04:36;;;;;;;13.57;7.40;;;3.70;99.90;;;;;;5067069;28;20243;-61
2021/01/23 00:08:01;;;;;;;12.20;7.77;;;3.70;99.90;;;;;;5062921;28;20227;-62
2021/01/23 00:11:19;;;;;;;9.83;7.53;;;3.70;99.90;;;;;;5059372;28;20732;-62
2021/01/23 00:14:41;;;;;;;11.20;7.30;;;3.70;99.90;;;;;;5067799;28;20292;-62
2021/01/23 00:18:10;;;;;;;9.80;7.10;;;3.70;99.90;;;;;;5066885;28;20280;-62
2021/01/23 00:21:30;;;;;;;11.77;7.27;;;3.70;99.90;;;;;;5060285;28;20269;-62
2021/01/23 00:25:01;;;;;;;10.87;7.87;;;3.60;99.90;;;;;;5063569;28;20607;-62
2021/01/23 00:28:19;;;;;;;14.30;7.23;;;3.60;99.90;;;;;;5061842;28;20292;-62
2021/01/23 00:31:37;;;;;;;10.70;7.03;;;3.50;99.90;;;;;;5061915;28;20227;-62
2021/01/23 00:34:59;;;;;;;9.50;6.90;;;3.60;99.90;;;;;;5057679;28;20266;-62
2021/01/23 00:38:21;;;;;;;9.90;7.50;;;3.60;99.90;;;;;;5063403;28;20227;-62
2021/01/23 00:45:17;;;;;;;12.77;7.60;;;3.50;99.90;;;;;;5073136;28;20223;-62
2021/01/23 00:48:35;;;;;;;13.30;7.00;;;3.50;99.90;;;;;;5070095;28;20227;-62
2021/01/23 00:52:08;;;;;;;10.70;6.87;;;3.50;99.90;;;;;;5068007;28;20218;-62
2021/01/23 00:55:26;;;;;;;9.03;6.90;;;3.60;99.90;;;;;;5069700;28;20235;-62
2021/01/23 00:58:44;;;;;;;17.37;7.03;;;3.60;99.90;;;;;;5065383;28;20270;-62
2021/01/23 01:02:27;;;;;;;13.30;7.17;;;3.60;99.90;;;;;;5071814;28;20285;-62
2021/01/23 01:06:03;;;;;;;7.47;5.83;;;3.50;99.90;;;;;;5063566;28;20219;-62
2021/01/23 01:09:28;;;;;;;16.33;6.63;;;3.50;99.90;;;;;;5069429;28;20258;-62
2021/01/23 01:12:50;;;;;;;11.80;6.70;;;3.50;99.90;;;;;;5075275;28;20254;-62
2021/01/23 01:16:12;;;;;;;8.80;6.50;;;3.50;99.90;;;;;;5066087;28;20306;-62
2021/01/23 01:19:30;;;;;;;11.87;6.83;;;3.50;99.90;;;;;;5070204;28;20330;-62
2021/01/23 01:22:53;;;;;;;10.20;6.23;;;3.50;99.90;;;;;;5068746;28;20226;-62
2021/01/23 01:26:12;;;;;;;12.73;6.17;;;3.60;99.90;;;;;;5058204;28;20266;-62
2021/01/23 01:29:29;;;;;;;11.07;6.00;;;3.70;99.90;;;;;;5065556;28;20215;-62
2021/01/23 01:32:50;;;;;;;13.90;5.87;;;3.80;99.90;;;;;;5065472;28;20249;-61
2021/01/23 01:36:07;;;;;;;6.63;4.83;;;3.90;99.90;;;;;;5058341;28;20231;-62
2021/01/23 01:39:28;;;;;;;9.13;5.20;;;4.00;99.90;;;;;;5063362;28;20220;-62
2021/01/23 01:42:57;;;;;;;;;;;;;;;;;;;;;
2021/01/23 01:46:17;;;;;;;7.40;4.70;;;4.10;99.90;;;;;;5061874;28;20825;-62
2021/01/23 01:49:34;;;;;;;7.07;4.90;;;4.10;99.90;;;;;;5070703;28;20590;-62
2021/01/23 01:53:00;;;;;;;9.07;5.20;;;4.00;99.90;;;;;;5066865;28;20224;-62
2021/01/23 01:56:21;;;;;;;8.70;4.97;;;4.00;99.90;;;;;;5058679;28;20282;-62
2021/01/23 01:59:58;;;;;;;5.60;4.47;;;3.90;99.90;;;;;;5067012;28;20334;-62
2021/01/23 02:03:58;;;;;;;6.37;5.23;;;3.80;99.90;;;;;;5048079;28;20215;-62
2021/01/23 02:07:45;;;;;;;8.97;5.13;;;3.70;99.90;;;;;;5047558;28;20334;-62
2021/01/23 02:11:09;;;;;;;7.37;4.83;;;3.60;99.90;;;;;;5049654;28;20219;-62
2021/01/23 02:14:33;;;;;;;6.70;4.63;;;3.50;99.90;;;;;;5041027;28;20228;-62
2021/01/23 02:18:04;;;;;;;9.60;5.07;;;3.40;99.90;;;;;;5038778;28;20254;-62
2021/01/23 02:22:05;;;;;;;11.33;4.97;;;3.50;99.90;;;;;;5046579;28;20224;-62
2021/01/23 02:25:25;;;;;;;6.47;5.63;;;3.50;99.90;;;;;;5046398;28;20238;-62
2021/01/23 02:29:04;;;;;;;11.67;5.37;;;3.50;99.90;;;;;;5035793;28;20239;-62
2021/01/23 02:32:28;;;;;;;8.57;4.83;;;3.50;99.90;;;;;;5041147;28;20614;-62
2021/01/23 02:35:47;;;;;;;10.03;5.10;;;3.50;99.90;;;;;;5044359;28;20227;-62
2021/01/23 02:39:15;;;;;;;5.43;4.80;;;3.40;99.90;;;;;;5036081;28;20262;-62
2021/01/23 02:42:33;;;;;;;11.40;4.80;;;3.40;99.90;;;;;;5044337;28;20236;-62
2021/01/23 02:45:59;;;;;;;5.83;4.57;;;3.30;99.90;;;;;;5043941;28;20269;-62
2021/01/23 02:49:21;;;;;;;7.30;4.70;;;3.40;99.90;;;;;;5039588;28;20228;-62
2021/01/23 02:53:09;;;;;;;6.30;4.77;;;3.40;99.90;;;;;;5039405;28;20235;-62
2021/01/23 02:56:31;;;;;;;7.83;4.90;;;3.30;99.90;;;;;;5045166;28;20224;-62
2021/01/23 03:00:10;;;;;;;11.27;4.77;;;3.30;99.90;;;;;;5045653;28;20224;-62
2021/01/23 03:03:31;;;;;;;5.37;4.87;;;3.30;99.90;;;;;;5039315;28;20591;-62
2021/01/23 03:06:58;;;;;;;7.83;4.73;;;3.20;99.90;;;;;;5038311;28;20308;-62
2021/01/23 03:10:19;;;;;;;6.47;4.63;;;3.20;99.90;;;;;;5042299;28;20228;-62
2021/01/23 03:13:45;;;;;;;8.43;4.83;;;3.20;99.90;;;;;;5050219;28;20730;-62
2021/01/23 03:17:08;;;;;;;6.47;4.60;;;3.20;99.90;;;;;;5042925;28;20754;-62
2021/01/23 03:20:40;;;;;;;8.97;4.53;;;3.20;99.90;;;;;;5045949;28;20262;-62
2021/01/23 03:23:59;;;;;;;8.87;4.77;;;3.10;99.90;;;;;;5047467;28;20220;-62
2021/01/23 03:27:24;;;;;;;9.07;4.37;;;3.10;99.90;;;;;;5047359;28;20338;-62
2021/01/23 03:30:43;;;;;;;7.13;4.47;;;3.10;99.90;;;;;;5041974;28;20220;-62
2021/01/23 03:34:02;;;;;;;12.93;5.10;;;3.20;99.90;;;;;;5051195;28;20674;-62
2021/01/23 03:37:33;;;;;;;4.77;4.23;;;3.20;99.90;;;;;;5046758;28;20732;-62
2021/01/23 03:40:52;;;;;;;11.63;4.70;;;3.20;99.90;;;;;;5042186;28;20266;-62
2021/01/23 03:44:27;;;;;;;8.20;4.17;;;3.20;99.90;;;;;;5046089;28;20246;-62
2021/01/23 03:47:57;;;;;;;5.10;4.40;;;3.20;99.90;;;;;;5044956;28;20246;-62
2021/01/23 03:51:16;;;;;;;8.23;4.27;;;3.10;99.90;;;;;;5043542;28;20227;-62
2021/01/23 03:54:34;;;;;;;8.60;4.40;;;3.00;99.90;;;;;;5043077;28;20220;-62
2021/01/23 03:57:53;;;;;;;6.80;4.33;;;3.00;99.90;;;;;;5034755;28;20228;-62
2021/01/23 04:01:10;;;;;;;7.00;4.23;;;3.10;99.90;;;;;;5054826;28;20234;-62
2021/01/23 04:04:32;;;;;;;8.40;4.53;;;3.10;99.90;;;;;;5057270;28;20251;-62
2021/01/23 04:07:50;;;;;;;8.03;4.63;;;3.10;99.90;;;;;;5065989;28;20282;-62
2021/01/23 04:11:19;;;;;;;7.30;4.13;;;3.10;99.90;;;;;;5069508;28;20293;-62
2021/01/23 04:14:41;;;;;;;7.73;4.00;;;3.00;99.90;;;;;;5066879;28;20227;-62
2021/01/23 04:17:12;;;;;;;4.50;4.10;;;3.00;99.90;;;;;;5032962;28;20252;-62
2021/01/23 04:19:50;;;;;;;5.67;4.47;;;3.00;99.90;;;;;;5059648;28;20286;-62
2021/01/23 04:25:13;;;;;;;9.50;4.43;;;3.00;99.90;;;;;;5045652;28;20216;-62
2021/01/23 04:27:41;;;;;;;6.90;4.40;;;3.00;99.90;;;;;;5052960;28;20280;-62
2021/01/23 04:30:20;;;;;;;6.90;4.00;;;3.00;99.90;;;;;;5066828;28;20243;-62
2021/01/23 04:32:58;;;;;;;5.73;4.20;;;3.00;99.90;;;;;;5071198;28;20764;-62
2021/01/23 04:35:45;;;;;;;6.97;4.23;;;2.90;99.90;;;;;;5067115;28;20562;-62
2021/01/23 04:38:14;;;;;;;5.10;4.20;;;2.90;99.90;;;;;;5049292;28;20212;-62
2021/01/23 04:40:41;;;;;;;9.00;4.33;;;2.80;99.90;;;;;;5066778;28;20254;-62
2021/01/23 04:43:10;;;;;;;8.93;4.40;;;2.80;99.90;;;;;;5072081;28;20239;-62
2021/01/23 04:45:38;;;;;;;5.53;4.33;;;2.80;99.90;;;;;;5066258;28;20261;-62
2021/01/23 04:48:06;;;;;;;11.97;5.00;;;2.80;99.90;;;;;;5069545;28;20216;-62
2021/01/23 04:50:48;;;;;;;8.40;5.43;;;2.80;99.90;;;;;;5054051;28;20585;-62
2021/01/23 04:53:19;;;;;;;9.20;5.80;;;2.80;99.90;;;;;;5051343;28;20212;-62
2021/01/23 04:55:47;;;;;;;5.73;4.37;;;2.80;99.90;;;;;;5073776;28;20212;-62
2021/01/23 04:58:35;;;;;;;12.50;5.20;;;2.70;99.90;;;;;;5070812;28;20283;-62
2021/01/23 05:01:04;;;;;;;7.63;4.47;;;2.60;99.90;;;;;;5063244;28;20298;-62
2021/01/23 05:03:56;;;;;;;5.37;4.60;;;2.60;99.90;;;;;;5056240;28;20219;-62
2021/01/23 05:06:52;;;;;;;8.63;4.43;;;2.70;99.90;;;;;;5078574;28;20269;-62
2021/01/23 05:09:26;;;;;;;6.83;4.03;;;2.70;99.90;;;;;;5050439;28;20759;-62
2021/01/23 05:12:09;;;;;;;4.30;3.37;;;2.70;99.90;;;;;;5063276;28;20212;-62
2021/01/23 05:15:02;;;;;;;8.33;3.73;;;2.60;99.90;;;;;;5069541;28;20699;-62
2021/01/23 05:20:52;;;;;;;6.10;3.20;;;2.60;99.90;;;;;;5065159;28;20642;-62
2021/01/23 05:23:31;;;;;;;9.27;3.60;;;2.60;99.90;;;;;;5049758;28;20207;-62
2021/01/23 05:26:00;;;;;;;4.30;3.13;;;2.60;99.90;;;;;;5062040;28;20211;-62
2021/01/23 05:28:35;;;;;;;7.20;3.63;;;2.60;99.90;;;;;;5074943;28;20211;-62
2021/01/23 05:31:30;;;;;;;4.03;3.43;;;2.60;99.90;;;;;;5067348;28;20221;-62
2021/01/23 05:33:59;;;;;;;8.83;4.00;;;2.60;99.90;;;;;;5065398;28;20224;-62
2021/01/23 05:36:27;;;;;;;10.80;4.00;;;2.70;99.90;;;;;;5071641;28;20212;-62
2021/01/23 05:38:58;;;;;;;4.20;3.43;;;2.60;99.90;;;;;;5065472;28;20209;-62
2021/01/23 05:41:29;;;;;;;9.13;3.87;;;2.60;99.90;;;;;;5062134;28;20215;-62
2021/01/23 05:44:01;;;;;;;4.93;4.20;;;2.60;99.90;;;;;;5064793;28;20228;-62
2021/01/23 05:46:54;;;;;;;7.40;3.80;;;2.60;99.90;;;;;;5063358;28;20240;-62
2021/01/23 05:49:31;;;;;;;6.80;3.90;;;2.50;99.90;;;;;;5051826;28;20761;-62
2021/01/23 05:52:11;;;;;;;9.80;3.83;;;2.50;99.90;;;;;;5064623;28;20224;-62
2021/01/23 05:54:44;;;;;;;4.73;3.37;;;2.50;99.90;;;;;;5062847;28;20211;-62
2021/01/23 05:57:12;;;;;;;8.47;3.87;;;2.50;99.90;;;;;;5061255;28;20227;-62
2021/01/23 05:59:41;;;;;;;9.13;4.13;;;2.50;99.90;;;;;;5067011;28;20208;-62
2021/01/23 06:02:10;;;;;;;6.73;3.60;;;2.40;99.90;;;;;;5064728;28;20239;-62
2021/01/23 06:04:43;;;;;;;7.83;4.70;;;2.40;99.90;;;;;;5073075;28;20299;-62
2021/01/23 06:07:43;;;;;;;10.60;6.33;;;2.30;99.90;;;;;;5057462;28;20305;-62
2021/01/23 06:10:39;;;;;;;17.67;9.77;;;2.30;99.90;;;;;;5047081;28;20220;-62
2021/01/23 06:13:37;;;;;;;16.80;10.93;;;2.40;99.90;;;;;;5068194;28;20246;-62
2021/01/23 06:16:39;;;;;;;10.50;6.47;;;2.30;99.90;;;;;;5065043;28;20223;-62
2021/01/23 06:19:38;;;;;;;6.20;5.60;;;2.30;99.90;;;;;;5064058;28;20208;-62
2021/01/23 06:22:11;;;;;;;9.57;5.83;;;2.30;99.90;;;;;;5059994;28;20223;-62
2021/01/23 06:24:54;;;;;;;8.77;5.37;;;2.30;99.90;;;;;;5066976;28;20212;-62
2021/01/23 06:27:22;;;;;;;7.50;4.53;;;2.30;99.90;;;;;;5079934;28;20721;-62
2021/01/23 06:29:49;;;;;;;7.90;4.50;;;2.30;99.90;;;;;;5051868;28;20341;-62
2021/01/23 06:32:49;;;;;;;7.70;4.47;;;2.30;99.90;;;;;;5064532;28;20212;-62
2021/01/23 06:35:17;;;;;;;10.97;3.93;;;2.30;99.90;;;;;;5057138;28;20227;-62
2021/01/23 06:38:14;;;;;;;9.17;3.40;;;2.30;99.90;;;;;;5049153;28;20624;-62
2021/01/23 06:41:17;;;;;;;8.10;3.97;;;2.20;99.90;;;;;;5068872;28;20245;-62
2021/01/23 06:44:19;;;;;;;5.93;3.40;;;2.10;99.90;;;;;;5079499;28;20624;-62
2021/01/23 06:47:06;;;;;;;9.73;3.50;;;2.10;99.90;;;;;;5058768;28;20678;-62
2021/01/23 06:54:08;;;;;;;5.53;3.73;;;2.00;99.90;;;;;;5059751;28;20220;-61
2021/01/23 06:56:42;;;;;;;4.43;3.60;;;2.00;99.90;;;;;;5063920;28;20207;-61
2021/01/23 06:59:25;;;;;;;8.33;3.57;;;2.00;99.90;;;;;;5070592;28;20215;-62
2021/01/23 07:02:10;;;;;;;6.70;3.63;;;1.90;99.90;;;;;;5046104;28;20285;-61
2021/01/23 07:04:46;;;;;;;6.93;3.37;;;1.90;99.90;;;;;;5051311;28;20621;-62
2021/01/23 07:07:15;;;;;;;3.90;3.17;;;1.80;99.90;;;;;;5049645;28;20270;-62
2021/01/23 07:10:04;;;;;;;3.70;3.17;;;1.80;99.90;;;;;;5049921;28;20228;-62
2021/01/23 07:12:46;;;;;;;6.73;3.27;;;1.70;99.90;;;;;;5044628;28;20217;-62
2021/01/23 07:15:35;;;;;;;7.43;3.27;;;1.70;99.90;;;;;;5044376;28;20216;-62
2021/01/23 07:18:12;;;;;;;3.87;2.90;;;1.70;99.90;;;;;;5049567;28;20630;-62
2021/01/23 07:20:45;;;;;;;4.20;3.10;;;1.80;99.90;;;;;;5027495;28;20330;-62
2021/01/23 07:23:26;;;;;;;7.33;3.33;;;1.80;99.90;;;;;;5041408;28;20223;-61
2021/01/23 07:26:12;;;;;;;8.87;3.50;;;1.80;99.90;;;;;;5045195;28;20595;-61
2021/01/23 07:28:56;;;;;;;6.47;3.40;;;1.80;99.90;;;;;;5043888;28;20217;-62
2021/01/23 07:31:25;;;;;;;4.63;3.40;;;1.80;99.90;;;;;;5043372;28;20225;-62
2021/01/23 07:34:16;;;;;;;8.07;3.47;;;1.80;99.90;;;;;;5054155;28;20232;-62
2021/01/23 07:36:59;;;;;;;5.53;3.30;;;1.70;99.90;;;;;;5010822;28;20560;-62
2021/01/23 07:39:29;;;;;;;7.10;3.40;;;1.70;99.90;;;;;;5075005;28;20265;-61
2021/01/23 07:42:45;;;;;;;7.60;3.80;;;1.70;99.90;;;;;;5046604;28;20209;-61
2021/01/23 07:45:15;;;;;;;7.47;3.90;;;1.70;99.90;;;;;;5046567;28;20216;-61
2021/01/23 07:48:01;;;;;;;8.30;3.53;;;1.70;99.90;;;;;;5052884;28;20548;-62
2021/01/23 07:50:37;;;;;;;6.10;3.80;;;1.70;99.90;;;;;;5006170;28;20229;-61
2021/01/23 07:53:24;;;;;;;10.50;3.70;;;1.80;99.90;;;;;;5050160;28;20231;-61
2021/01/23 07:55:54;;;;;;;8.90;3.77;;;1.80;99.90;;;;;;5045109;28;20232;-62
2021/01/23 07:58:40;;;;;;;5.77;3.90;;;1.80;99.90;;;;;;5044099;28;20267;-61
2021/01/23 08:01:59;;;;;;;5.70;3.93;;;1.90;99.90;;;;;;5054415;28;20752;-62
2021/01/23 08:05:11;;;;;;;4.63;3.73;;;1.90;99.90;;;;;;5057745;28;20247;-62
2021/01/23 08:08:47;;;;;;;5.97;3.60;;;1.90;99.90;;;;;;5069107;28;20325;-62
2021/01/23 08:12:07;;;;;;;6.43;3.77;;;1.90;99.90;;;;;;5072011;28;20208;-62
2021/01/23 08:15:04;;;;;;;7.30;3.87;;;2.00;99.90;;;;;;5071180;28;20216;-61
2021/01/23 08:17:54;;;;;;;9.43;4.13;;;2.00;99.90;;;;;;5066409;28;20694;-62
2021/01/23 08:21:21;;;;;;;13.33;4.30;;;2.00;99.90;;;;;;5071808;28;20718;-61
2021/01/23 08:23:49;;;;;;;10.17;4.47;;;2.10;99.90;;;;;;5067436;28;20230;-61
2021/01/23 08:27:11;;;;;;;6.77;4.40;;;2.10;99.90;;;;;;5003366;28;20697;-61
2021/01/23 08:29:41;;;;;;;9.97;4.70;;;2.10;99.90;;;;;;4995254;28;20261;-62
2021/01/23 08:32:35;;;;;;;14.00;4.33;;;2.20;99.90;;;;;;5001562;28;20284;-62
2021/01/23 08:35:07;;;;;;;7.67;4.57;;;2.20;99.90;;;;;;4991312;28;20222;-62
2021/01/23 08:37:46;;;;;;;7.90;4.93;;;2.30;99.90;;;;;;4999770;28;20225;-62
2021/01/23 08:40:22;;;;;;;10.73;5.30;;;2.40;99.90;;;;;;5009673;28;20234;-61
2021/01/23 08:43:07;;;;;;;7.53;4.90;;;2.50;99.90;;;;;;5002705;28;20217;-62
2021/01/23 08:45:35;;;;;;;13.20;5.37;;;2.50;99.90;;;;;;5065256;28;20774;-62
2021/01/23 08:48:34;;;;;;;6.63;5.13;;;2.60;99.90;;;;;;5068145;28;20205;-62
2021/01/23 08:51:06;;;;;;;11.60;5.60;;;2.70;99.90;;;;;;5006337;28;20733;-62
2021/01/23 08:53:36;;;;;;;7.07;4.60;;;2.70;99.90;;;;;;5060904;28;20293;-62
2021/01/23 08:56:07;;;;;;;8.63;4.67;;;2.70;99.90;;;;;;5068827;28;20223;-62
2021/01/23 08:58:52;;;;;;;10.63;4.63;;;2.80;99.90;;;;;;5060717;28;20258;-62
2021/01/23 09:01:29;;;;;;;13.50;6.13;;;2.80;99.90;;;;;;5068112;28;20564;-62
2021/01/23 09:04:07;;;;;;;15.67;6.93;;;2.80;99.90;;;;;;5074327;28;20547;-62
2021/01/23 09:06:43;;;;;;;12.83;6.50;;;2.80;99.90;;;;;;5058344;28;20581;-62
2021/01/23 09:09:23;;;;;;;15.27;6.37;;;2.90;99.90;;;;;;5075611;28;20249;-62
2021/01/23 09:11:54;;;;;;;10.87;6.10;;;2.90;99.90;;;;;;5065691;28;20270;-62
2021/01/23 09:14:21;;;;;;;9.97;5.87;;;2.90;99.90;;;;;;5075441;28;20548;-62
2021/01/23 09:16:49;;;;;;;10.40;6.23;;;3.00;99.90;;;;;;5054774;28;20575;-62
2021/01/23 09:19:38;;;;;;;18.33;6.20;;;3.00;99.90;;;;;;5066293;28;20741;-62
2021/01/23 09:22:14;;;;;;;13.70;7.00;;;3.10;99.90;;;;;;5069572;28;20270;-62
2021/01/23 09:25:02;;;;;;;13.63;5.97;;;3.00;99.90;;;;;;5072045;28;20545;-62
2021/01/23 09:27:29;;;;;;;8.60;5.30;;;3.10;99.90;;;;;;5076025;28;20690;-62
2021/01/23 09:29:57;;;;;;;11.93;5.90;;;3.20;99.90;;;;;;5079048;28;20220;-62
2021/01/23 09:32:28;;;;;;;8.83;5.97;;;3.20;99.90;;;;;;5072042;28;20221;-62
2021/01/23 09:35:24;;;;;;;15.67;6.40;;;3.30;99.90;;;;;;5070629;28;20207;-62
2021/01/23 09:48:09;;;;;;;13.00;6.40;;;3.60;99.90;;;;;;4904249;28;20238;-62
2021/01/23 09:50:50;;;;;;;10.30;7.07;;;3.60;99.90;;;;;;4981919;28;20712;-62
2021/01/23 09:53:47;;;;;;;9.17;6.83;;;3.70;99.90;;;;;;4993985;28;20235;-62
2021/01/23 10:03:11;;;;;;;14.70;7.50;;;4.10;99.90;;;;;;5049238;28;20239;-62
2021/01/23 10:05:38;;;;;;;15.40;8.33;;;4.10;99.90;;;;;;5072602;28;20216;-62
2021/01/23 10:08:34;;;;;;;15.17;8.37;;;4.20;99.90;;;;;;5084312;28;20214;-62
2021/01/23 10:11:04;;;;;;;15.53;8.30;;;4.30;99.90;;;;;;5069626;28;20212;-62
2021/01/23 10:13:49;;;;;;;15.10;8.40;;;4.40;99.90;;;;;;5072465;28;20220;-62
2021/01/23 10:19:11;;;;;;;15.83;8.73;;;4.50;99.90;;;;;;5065467;28;20208;-62
2021/01/23 10:24:55;;;;;;;13.87;7.53;;;4.50;99.90;;;;;;5070474;28;20258;-62
2021/01/23 10:27:24;;;;;;;10.30;7.70;;;4.60;99.90;;;;;;5071148;28;20219;-62
2021/01/23 10:32:36;;;;;;;16.20;8.37;;;4.80;99.90;;;;;;5028685;28;20289;-62
2021/01/23 10:35:05;;;;;;;19.77;8.50;;;4.80;99.90;;;;;;5070935;28;20291;-62
2021/01/23 10:37:47;;;;;;;11.57;7.67;;;4.80;99.90;;;;;;5052808;28;20219;-62
2021/01/23 10:40:24;;;;;;;15.70;8.53;;;4.90;99.90;;;;;;5072081;28;20272;-62
2021/01/23 10:42:55;;;;;;;16.77;8.27;;;4.80;99.90;;;;;;5082083;28;20694;-62
2021/01/23 10:45:43;;;;;;;16.80;8.37;;;4.80;99.90;;;;;;5057261;28;20219;-63
2021/01/23 10:51:34;;;;;;;19.13;8.60;;;5.00;99.90;;;;;;5065715;28;20694;-62
2021/01/23 10:54:40;;;;;;;21.40;8.30;;;5.10;99.90;;;;;;5051090;28;20585;-62
2021/01/23 10:57:12;;;;;;;12.10;8.07;;;5.10;99.90;;;;;;5064175;28;20220;-62
2021/01/23 10:59:45;;;;;;;15.90;8.33;;;5.20;99.90;;;;;;5067416;28;20212;-62
2021/01/23 11:02:15;;;;;;;16.30;8.80;;;5.20;99.90;;;;;;5053333;28;20444;-62
2021/01/23 11:04:49;;;;;;;17.37;9.50;;;5.20;99.90;;;;;;5064954;28;20285;-62
2021/01/23 11:10:29;;;;;;;16.50;7.90;;;5.20;99.90;;;;;;5049686;28;21082;-62
2021/01/23 11:15:55;;;;;;;16.70;7.97;;;5.30;99.90;;;;;;5081436;28;20688;-62
2021/01/23 11:18:23;;;;;;;15.43;8.13;;;5.40;99.90;;;;;;5053209;28;20708;-62
2021/01/23 11:20:51;;;;;;;14.30;7.90;;;5.40;99.90;;;;;;5080562;28;20223;-62
2021/01/23 11:23:39;;;;;;;18.20;7.57;;;5.40;99.90;;;;;;5067375;28;20223;-62
2021/01/23 11:29:00;;;;;;;13.97;8.13;;;5.30;99.90;;;;;;5069547;28;20273;-62
2021/01/23 11:34:19;;;;;;;21.10;9.30;;;5.30;99.90;;;;;;5066197;28;20305;-62
2021/01/23 11:36:46;;;;;;;16.13;8.00;;;5.40;99.90;;;;;;5073947;28;20269;-62
2021/01/23 11:39:24;;;;;;;14.73;8.00;;;5.40;99.90;;;;;;5057232;28;20206;-62
2021/01/23 11:41:51;;;;;;;17.07;8.17;;;5.40;99.90;;;;;;5077615;28;20215;-62
2021/01/23 11:44:38;;;;;;;12.50;8.00;;;5.40;99.90;;;;;;5070853;28;20207;-62
2021/01/23 11:47:09;;;;;;;17.07;7.60;;;5.40;99.90;;;;;;5070289;28;20226;-62
2021/01/23 11:49:49;;;;;;;18.63;8.77;;;5.30;99.90;;;;;;5077628;28;20203;-62
2021/01/23 11:52:43;;;;;;;23.13;9.20;;;5.30;99.90;;;;;;5032808;28;20698;-63
2021/01/23 11:55:28;;;;;;;17.03;9.33;;;5.30;99.90;;;;;;5034775;28;20263;-63
2021/01/23 11:58:13;;;;;;;18.73;9.33;;;5.30;99.90;;;;;;5033235;28;20221;-62
2021/01/23 12:04:05;;;;;;;20.70;9.63;;;5.10;99.90;;;;;;5044128;28;20709;-62
2021/01/23 12:06:36;;;;;;;19.90;9.33;;;5.10;99.90;;;;;;5050298;28;20232;-62
2021/01/23 12:09:09;;;;;;;24.90;9.93;;;5.10;99.90;;;;;;5039532;28;20270;-62
2021/01/23 12:11:40;;;;;;;20.07;9.73;;;5.10;99.90;;;;;;5046194;28;20251;-62
2021/01/23 12:14:19;;;;;;;22.20;9.90;;;5.10;99.90;;;;;;5086088;28;20559;-62
2021/01/23 12:16:52;;;;;;;19.60;8.97;;;5.10;99.90;;;;;;5069907;28;20212;-62
2021/01/23 12:19:23;;;;;;;18.53;9.60;;;5.10;99.90;;;;;;5062953;28;20569;-62
2021/01/23 12:21:50;;;;;;;23.33;9.87;;;5.20;99.90;;;;;;5053872;28;20291;-62
2021/01/23 12:24:21;;;;;;;19.07;9.40;;;5.10;99.90;;;;;;5065811;28;20239;-62
2021/01/23 12:26:58;;;;;;;25.63;9.43;;;5.20;99.90;;;;;;5070404;28;20251;-63
2021/01/23 12:30:30;;;;;;;21.10;10.67;;;5.20;99.90;;;;;;5065316;28;20290;-62
2021/01/23 12:33:20;;;;;;;25.80;10.20;;;5.10;99.90;;;;;;5056424;28;20231;-63
2021/01/23 12:35:54;;;;;;;25.40;10.53;;;5.10;99.90;;;;;;5027578;28;20216;-62
2021/01/23 12:49:59;;;;;;;25.87;10.70;;;5.30;99.90;;;;;;4985674;28;20705;-62
2021/01/23 12:52:30;;;;;;;24.83;10.73;;;5.30;99.90;;;;;;4972355;28;20223;-62
2021/01/23 12:55:24;;;;;;;28.63;10.73;;;5.30;99.90;;;;;;4997343;28;20282;-62
2021/01/23 13:00:49;;;;;;;28.07;11.80;;;5.30;99.90;;;;;;5069182;28;20637;-62
2021/01/23 13:03:26;;;;;;;30.70;11.80;;;5.40;99.90;;;;;;5053487;28;20611;-62
2021/01/23 13:08:59;;;;;;;28.63;10.33;;;5.50;99.90;;;;;;5034551;28;20236;-63
2021/01/23 13:11:56;;;;;;;29.23;12.20;;;5.50;99.90;;;;;;5035260;28;20271;-63
2021/01/23 13:14:42;;;;;;;27.87;11.10;;;5.50;99.90;;;;;;4991423;28;20242;-62
2021/01/23 13:20:40;;;;;;;16.07;8.10;;;5.60;99.90;;;;;;4983383;28;20321;-63
2021/01/23 13:23:34;;;;;;;15.13;7.23;;;5.80;99.90;;;;;;5015102;28;20236;-63
2021/01/23 13:26:09;;;;;;;12.57;6.70;;;5.80;99.90;;;;;;5036760;28;20266;-63
2021/01/23 13:28:51;;;;;;;18.77;7.70;;;5.90;99.90;;;;;;4996688;28;20782;-62
2021/01/23 13:31:21;;;;;;;17.17;7.70;;;5.90;99.90;;;;;;5012701;28;20276;-62
2021/01/23 13:33:50;;;;;;;18.03;8.87;;;5.90;99.90;;;;;;5013955;28;20763;-62
2021/01/23 13:36:17;;;;;;;25.43;10.00;;;5.90;99.90;;;;;;5001963;28;20277;-62
2021/01/23 13:39:05;;;;;;;27.63;10.87;;;5.90;99.90;;;;;;4984636;28;20230;-63
2021/01/23 13:41:47;;;;;;;30.77;13.07;;;5.80;99.90;;;;;;4943869;28;20288;-62
2021/01/23 13:44:17;;;;;;;28.77;13.03;;;5.80;99.90;;;;;;5004380;28;20603;-63
2021/01/23 13:46:45;;;;;;;27.53;12.43;;;5.80;99.90;;;;;;4994081;28;20574;-63
2021/01/23 13:49:13;;;;;;;29.70;12.90;;;5.80;99.90;;;;;;4988983;28;20222;-63
2021/01/23 13:51:50;;;;;;;32.27;13.90;;;5.80;99.90;;;;;;5008551;28;20218;-62
2021/01/23 13:54:33;;;;;;;38.67;14.00;;;5.80;99.90;;;;;;4989317;28;20317;-63
2021/01/23 13:57:19;;;;;;;33.60;14.67;;;5.70;99.90;;;;;;4985341;28;20218;-63
2021/01/23 13:59:49;;;;;;;31.43;12.83;;;5.70;99.90;;;;;;4995753;28;20238;-63
2021/01/23 14:02:17;;;;;;;27.73;12.80;;;5.70;99.90;;;;;;5005395;28;20236;-62
2021/01/23 14:05:03;;;;;;;32.20;13.20;;;5.70;99.90;;;;;;5013050;28;20213;-63
2021/01/23 14:07:31;;;;;;;33.70;13.20;;;5.60;99.90;;;;;;5066637;28;20254;-63
2021/01/23 14:10:08;;;;;;;29.83;12.87;;;5.60;99.90;;;;;;5054900;28;20227;-62
2021/01/23 14:12:43;;;;;;;26.97;12.23;;;5.60;99.90;;;;;;5073562;28;20614;-63
2021/01/23 14:18:12;;;;;;;26.80;11.30;;;5.60;99.90;;;;;;5030560;28;20227;-62
2021/01/23 14:20:41;;;;;;;27.37;11.00;;;5.60;99.90;;;;;;5068033;28;20209;-63
2021/01/23 14:23:09;;;;;;;26.90;11.40;;;5.50;99.90;;;;;;5073455;28;20265;-63
2021/01/23 14:25:47;;;;;;;27.53;11.40;;;5.60;99.90;;;;;;5042493;28;20569;-62
2021/01/23 14:28:46;;;;;;;27.80;11.50;;;5.50;99.90;;;;;;5053684;28;20209;-62
2021/01/23 14:33:56;;;;;;;24.20;10.70;;;5.40;99.90;;;;;;5055069;28;20216;-62
2021/01/23 14:37:15;;;;;;;26.07;10.93;;;5.40;99.90;;;;;;5047487;28;20602;-63
2021/01/23 14:40:13;;;;;;;23.60;11.43;;;5.30;99.90;;;;;;5060019;28;20208;-63
2021/01/23 14:43:01;;;;;;;25.90;11.73;;;5.30;99.90;;;;;;5043114;28;20216;-62
2021/01/23 14:45:49;;;;;;;28.43;13.40;;;5.30;99.90;;;;;;5071345;28;20219;-63
2021/01/23 14:48:46;;;;;;;31.20;13.87;;;5.20;99.90;;;;;;5065601;28;20247;-62
2021/01/23 14:51:23;;;;;;;26.73;12.90;;;5.20;99.90;;;;;;5028573;28;20282;-62
2021/01/23 14:54:06;;;;;;;24.47;12.90;;;5.10;99.90;;;;;;4995442;28;20281;-63
2021/01/23 14:57:00;;;;;;;21.33;12.63;;;5.10;99.90;;;;;;5060715;28;20256;-63
2021/01/23 15:00:09;;;;;;;24.90;12.37;;;5.00;99.90;;;;;;5048929;28;20586;-62
2021/01/23 15:02:55;;;;;;;22.97;12.17;;;5.00;99.90;;;;;;5005502;28;20237;-63
2021/01/23 15:05:37;;;;;;;21.37;11.63;;;5.00;99.90;;;;;;5067849;28;20315;-63
2021/01/23 15:08:12;;;;;;;22.27;11.40;;;4.90;99.90;;;;;;5057906;28;20704;-63
2021/01/23 15:10:50;;;;;;;22.37;11.37;;;4.90;99.90;;;;;;5073288;28;20306;-62
2021/01/23 15:13:31;;;;;;;17.30;11.37;;;4.90;99.90;;;;;;5062587;28;20282;-62
2021/01/23 15:15:59;;;;;;;26.53;11.90;;;4.80;99.90;;;;;;5070602;28;20216;-63
2021/01/23 15:18:34;;;;;;;21.27;12.03;;;4.80;99.90;;;;;;5074495;28;20272;-62
2021/01/23 15:21:20;;;;;;;21.70;12.17;;;4.70;99.90;;;;;;5060126;28;20697;-62
2021/01/23 15:23:51;;;;;;;20.53;12.47;;;4.70;99.90;;;;;;5051007;28;20273;-63
2021/01/23 15:26:22;;;;;;;18.67;12.23;;;4.60;99.90;;;;;;5055678;28;20587;-62
2021/01/23 15:29:20;;;;;;;24.93;13.67;;;4.60;99.90;;;;;;5023355;28;20217;-62
2021/01/23 15:31:53;;;;;;;28.90;14.50;;;4.60;99.90;;;;;;5019615;28;20281;-63
2021/01/23 15:34:39;;;;;;;30.30;14.47;;;4.60;99.90;;;;;;5026013;28;20226;-62
2021/01/23 15:37:06;;;;;;;26.33;15.13;;;4.50;99.90;;;;;;5022592;28;20334;-62
2021/01/23 15:39:47;;;;;;;30.40;15.97;;;4.50;99.90;;;;;;4997106;28;20316;-63
2021/01/23 15:42:28;;;;;;;24.90;15.70;;;4.50;99.90;;;;;;5024442;28;20658;-63
2021/01/23 15:44:58;;;;;;;24.87;15.63;;;4.50;99.90;;;;;;5005450;28;20319;-62
2021/01/23 15:47:34;;;;;;;25.03;15.00;;;4.50;99.90;;;;;;5055331;28;20231;-62
2021/01/23 15:50:08;;;;;;;26.33;15.37;;;4.40;99.90;;;;;;5071317;28;20212;-62
2021/01/23 15:52:44;;;;;;;24.30;14.53;;;4.40;99.90;;;;;;5072665;28;20208;-62
2021/01/23 15:55:12;;;;;;;23.53;13.93;;;4.40;99.90;;;;;;5069378;28;20235;-62
2021/01/23 15:57:44;;;;;;;23.73;14.40;;;4.40;99.90;;;;;;5081479;28;20251;-62
2021/01/23 16:00:15;;;;;;;28.63;14.93;;;4.30;99.90;;;;;;5063046;28;20742;-62
2021/01/23 16:02:49;;;;;;;24.30;15.73;;;4.30;99.90;;;;;;5018685;28;20725;-63
2021/01/23 16:08:15;;;;;;;26.63;15.97;;;4.30;99.90;;;;;;5076928;28;20227;-62
2021/01/23 16:10:45;;;;;;;23.90;15.53;;;4.30;99.90;;;;;;5072456;28;20215;-63
2021/01/23 16:13:16;;;;;;;30.00;15.73;;;4.20;99.90;;;;;;5064516;28;20272;-62
2021/01/23 16:15:59;;;;;;;28.97;16.50;;;4.20;99.90;;;;;;5064404;28;20215;-62
2021/01/23 16:18:27;;;;;;;24.80;15.20;;;4.20;99.90;;;;;;5017875;28;20228;-63
2021/01/23 16:23:49;;;;;;;32.00;17.87;;;4.10;99.90;;;;;;5042543;28;20212;-62